Flight Track Log - Related Links

Times and Time Zones

All times are in EDT time to prevent confusion due to time zone crossing. See the OPT332 flight status page for this flight to view local times or setup timezone preferences in your user account.

Time Position Orientation Groundspeed Altitude Reporting Facility
EDT Latitude Longitude Course Direction KTS MPH feet Rate Location/Type
Sun 02:04:25 PM 36.0764 -115.1600 265° West 154 177 3,600  Level Los Angeles Center
Sun 02:05:50 PM 36.0700 -115.2500 265° West 214 246 7,000 1,889 Climbing Los Angeles Center
Sun 02:06:13 PM 36.0586 -115.2631 223° Southwest 215 247 7,000  Level Los Angeles Center
Sun 02:06:39 PM 36.0225 -115.2789 200° South 254 292 7,000  Level Los Angeles Center
Sun 02:07:15 PM 35.9911 -115.2908 197° South 251 289 7,000 1,917 Level Los Angeles Center
Sun 02:07:51 PM 35.9469 -115.3303 216° Southwest 262 302 9,300 3,774 Climbing Los Angeles Center
Sun 02:08:17 PM 35.9244 -115.3586 226° Southwest 266 306 10,900 3,491 Climbing Los Angeles Center
Sun 02:08:46 PM 35.8983 -115.3939 228° Southwest 282 325 12,500 3,387 Climbing Los Angeles Center
Sun 02:09:19 PM 35.8864 -115.4408 253° West 280 322 14,400 3,095 Climbing Los Angeles Center
Sun 02:10:21 PM 35.8889 -115.5378 272° West 278 320 17,400 2,806 Climbing Los Angeles Center
Sun 02:11:23 PM 35.8903 -115.6506 271° West 300 345 20,200 2,129 Climbing Los Angeles Center
Sun 02:13:27 PM 35.9511 -115.8375 292° West 330 380 24,000 1,733 Climbing Los Angeles Center
Sun 02:14:30 PM 36.0136 -115.9297 310° West 341 392 25,600 1,728 Climbing Los Angeles Center
Sun 02:15:32 PM 36.0825 -116.0303 310° West 357 411 27,600 1,790 Climbing Los Angeles Center
Sun 02:16:34 PM 36.1503 -116.1300 310° West 374 430 29,300 1,694 Climbing Los Angeles Center
Sun 02:17:36 PM 36.2261 -116.2419 310° West 384 442 31,100 1,306 Climbing Los Angeles Center
Sun 02:18:38 PM 36.2986 -116.3481 310° West 400 460 32,000 435 Climbing Los Angeles Center
Sun 02:19:40 PM 36.3772 -116.4636 310° West 432 497 32,000  Level Los Angeles Center
Sun 02:20:42 PM 36.4553 -116.5806 310° West 440 506 32,000  Level Los Angeles Center
Sun 02:21:44 PM 36.5428 -116.7125 310° West 439 505 32,000  Level Los Angeles Center
Sun 02:22:46 PM 36.6397 -116.8042 323° Northwest 438 504 32,000  Level Los Angeles Center
Sun 02:23:48 PM 36.7319 -116.9131 317° Northwest 442 509 32,000  Level Los Angeles Center
Sun 02:24:51 PM 36.7708 -117.0514 289° West 426 490 32,000  Level Los Angeles Center
Sun 02:25:53 PM 36.8097 -117.2172 286° West 430 495 32,000  Level Los Angeles Center
Sun 02:26:56 PM 36.8442 -117.3594 287° West 428 493 32,000  Level Los Angeles Center
Sun 02:27:57 PM 36.8781 -117.5011 287° West 426 490 32,000  Level Los Angeles Center
Sun 02:28:59 PM 36.9111 -117.6431 286° West 424 488 32,000  Level Los Angeles Center
Sun 02:29:50 PM 36.9356 -117.7561 285° West 422 486 32,000  Level Oakland Center
Sun 02:30:52 PM 36.9753 -117.9256 286° West 421 484 32,000  Level Oakland Center
Sun 02:31:54 PM 37.0075 -118.0664 286° West 420 483 32,000  Level Oakland Center
Sun 02:32:56 PM 37.0406 -118.2075 286° West 420 483 32,000  Level Oakland Center
Sun 02:33:58 PM 37.0711 -118.3453 286° West 414 476 32,000  Level Oakland Center
Sun 02:34:59 PM 37.1022 -118.4833 286° West 414 476 32,000  Level Oakland Center
Sun 02:36:01 PM 37.1325 -118.6217 285° West 414 476 32,000  Level Oakland Center
Sun 02:37:03 PM 37.1639 -118.7608 286° West 416 479 32,000  Level Oakland Center
Sun 02:38:05 PM 37.1997 -118.9272 285° West 416 479 32,000  Level Oakland Center
Sun 02:39:07 PM 37.2308 -119.0644 286° West 412 474 32,000  Level Oakland Center
Sun 02:40:08 PM 37.2606 -119.2031 285° West 414 476 32,000  Level Oakland Center
Sun 02:41:10 PM 37.2903 -119.3397 285° West 410 472 32,000  Level Oakland Center
Sun 02:42:12 PM 37.3200 -119.4778 285° West 410 472 32,000  Level Oakland Center
Sun 02:43:14 PM 37.3506 -119.6239 285° West 412 474 32,000 -145 Level Oakland Center
Sun 02:44:16 PM 37.3808 -119.7622 285° West 411 473 31,700 -871 Descending Oakland Center
Sun 02:45:18 PM 37.4111 -119.9092 285° West 431 496 30,200 -1,610 Descending Oakland Center
Sun 02:46:19 PM 37.4486 -120.0858 285° West 434 499 28,400 -1,610 Descending Oakland Center
Sun 02:47:21 PM 37.4775 -120.2272 284° West 420 483 26,900 -1,452 Descending Oakland Center
Sun 02:48:23 PM 37.5061 -120.3661 285° West 412 474 25,400 -1,452 Descending Oakland Center
Sun 02:49:25 PM 37.5350 -120.5031 285° West 405 466 23,900 -1,500 Descending Oakland Center
Sun 02:50:27 PM 37.5622 -120.6383 284° West 399 459 22,300 -1,403 Descending Oakland Center
Sun 02:51:29 PM 37.5889 -120.7669 285° West 383 441 21,000 -1,210 Descending Oakland Center
Sun 02:52:31 PM 37.6144 -120.8939 284° West 375 432 19,800 -1,512 Descending Oakland Center
Sun 02:53:32 PM 37.6192 -121.0256 273° West 378 435 17,900 -1,452 Descending Oakland Center
Sun 02:59:49 PM 37.5211 -121.7560 273° West 289 333 9,200 -1,408 Descending FlightAware ADS-B
Sun 03:00:04 PM 37.5158 -121.7830 256° West 286 329 8,700 -1,600 Descending FlightAware ADS-B
Sun 03:00:19 PM 37.5111 -121.8080 257° West 286 329 8,400 -1,000 Descending FlightAware ADS-B
Sun 03:00:34 PM 37.5063 -121.8320 256° West 283 326 8,200 -581 Descending FlightAware ADS-B
Sun 03:00:50 PM 37.5015 -121.8570 256° West 280 322 8,100 -214 Descending FlightAware ADS-B
Sun 03:01:02 PM 37.4979 -121.8750 256° West 283 326 8,100  Level FlightAware ADS-B
Sun 03:01:17 PM 37.4933 -121.9000 257° West 271 312 8,100 -387 Level FlightAware ADS-B
Sun 03:01:33 PM 37.4888 -121.9230 256° West 252 290 7,900 -1,548 Descending FlightAware ADS-B
Sun 03:01:48 PM 37.4848 -121.9450 257° West 257 296 7,300 -2,000 Descending FlightAware ADS-B
Sun 03:02:00 PM 37.4815 -121.9620 256° West 253 291 7,000 -1,600 Descending FlightAware ADS-B
Sun 03:02:03 PM 37.4811 -121.9670 264° West 254 292 6,900 -1,714 Descending FlightAware ADS-B
Sun 03:02:07 PM 37.4814 -121.9730 274° West 253 291 6,800 -1,714 Descending FlightAware ADS-B
Sun 03:02:10 PM 37.4819 -121.9770 279° West 252 290 6,700 -1,500 Descending FlightAware ADS-B
Sun 03:02:15 PM 37.4832 -121.9840 283° West 250 288 6,600 -545 Descending FlightAware ADS-B
Sun 03:02:21 PM 37.4849 -121.9920 285° West 246 283 6,600 -545 Level FlightAware ADS-B
Sun 03:02:26 PM 37.4866 -121.9990 287° West 243 280 6,500 -900 Descending FlightAware ADS-B
Sun 03:02:41 PM 37.4924 -122.0190 290° West 239 275 6,300 -1,000 Descending FlightAware ADS-B
Sun 03:02:50 PM 37.4960 -122.0300 292° West 235 270 6,100 -750 Descending FlightAware ADS-B
Sun 03:02:57 PM 37.4993 -122.0400 293° West 228 262 6,100  Level FlightAware ADS-B
Sun 03:03:05 PM 37.5030 -122.0490 297° West 220 253 6,100 -1,250 Level FlightAware ADS-B
Sun 03:03:21 PM 37.5108 -122.0660 300° West 226 260 5,600 -1,935 Descending FlightAware ADS-B
Sun 03:03:36 PM 37.5193 -122.0830 302° West 230 265 5,100 -1,800 Descending FlightAware ADS-B
Sun 03:03:51 PM 37.5275 -122.1010 300° West 229 264 4,700 -1,448 Descending FlightAware ADS-B
Sun 03:04:05 PM 37.5339 -122.1170 297° West 230 265 4,400 -1,263 Descending FlightAware ADS-B
Sun 03:04:10 PM 37.5360 -122.1240 291° West 229 264 4,300 -1,200 Descending FlightAware ADS-B
Sun 03:04:25 PM 37.5416 -122.1410 293° West 211 243 4,000 -1,440 Descending FlightAware ADS-B
Sun 03:04:35 PM 37.5451 -122.1530 290° West 204 235 3,700 -1,440 Descending FlightAware ADS-B
Sun 03:04:50 PM 37.5496 -122.1700 288° West 198 228 3,400 -1,091 Descending FlightAware ADS-B
Sun 03:04:57 PM 37.5517 -122.1770 291° West 192 221 3,300 -1,364 Descending FlightAware ADS-B
Sun 03:05:12 PM 37.5569 -122.1930 292° West 193 222 2,900 -1,200 Descending FlightAware ADS-B
Sun 03:05:32 PM 37.5633 -122.2120 293° West 183 211 2,600 -1,059 Descending FlightAware ADS-B
Sun 03:05:46 PM 37.5675 -122.2260 291° West 174 200 2,300 -1,200 Descending FlightAware ADS-B
Sun 03:06:02 PM 37.5718 -122.2410 290° West 171 197 2,000 -1,000 Descending FlightAware ADS-B
Sun 03:06:10 PM 37.5738 -122.2490 288° West 174 200 1,900 -571 Descending FlightAware ADS-B
Sun 03:06:23 PM 37.5772 -122.2610 290° West 158 182 1,800 -240 Descending FlightAware ADS-B
Sun 03:06:35 PM 37.5799 -122.2710 289° West 142 163 1,800 -333 Level FlightAware ADS-B
Sun 03:06:41 PM 37.5814 -122.2760 291° West 138 159 1,700 -1,125 Descending FlightAware ADS-B
Sun 03:06:51 PM 37.5838 -122.2830 293° West 139 160 1,500 -1,091 Descending FlightAware ADS-B
Sun 03:07:03 PM 37.5870 -122.2920 294° West 134 154 1,300 -923 Descending FlightAware ADS-B
Sun 03:07:17 PM 37.5906 -122.3010 297° West 135 155 1,100 -621 Descending FlightAware ADS-B
Sun 03:07:32 PM 37.5949 -122.3120 296° West 136 157 1,000 -563 Descending FlightAware ADS-B
Sun 03:07:49 PM 37.5995 -122.3230 298° West 136 157 800 -828 Descending FlightAware ADS-B
Sun 03:08:01 PM 37.6029 -122.3320 295° West 123 142 600 -720 Descending FlightAware ADS-B
Sun 03:08:14 PM 37.6060 -122.3390 299° West 117 135 500 -600 Descending FlightAware ADS-B
Sun 03:08:21 PM 37.6078 -122.3430 300° West 116 133 400 -818 Descending FlightAware ADS-B
Sun 03:08:36 PM 37.6116 -122.3530 296° West 117 135 200 -800 Descending FlightAware ADS-B
Sun 03:16:00 PM 37.6167 -122.3667 322° Northwest  Level FlightAware Approximate
Sun 03:17:00 PM 37.6191 -122.3752 322° Northwest  Level Estimated

Login

Don't have an account? Register now (free) for customized features, flight alerts, and more!